PAGM

Details ICAO PAGM (GAM)
Name GAMBELL
Region USA (Alaska)
Timezone America/Nome (UTC-8.0)
Plans Departing 4
Arriving 4
Stats Elevation 27 ft / 8 m (AMSL)
Location 63.766613° -171.732791°
Runways 1
Magnetic Variation 6.783° E
Sunrise 2018-05-21 13:58:21 UTC / 2018-05-21 05:58:21 Local
Sunset 2018-05-22 08:51:37 UTC / 2018-05-22 00:51:37 Local
Advertisement - Login to hide

Runways

ID Width Length Bearing (true) Bearing (mag) Surface Threshold Offset Overrun Length
16 95 ft / 29 m 4,491 ft / 1,369 m 172.06° 165.28° Asphalt 0 ft / 0 m 0 ft / 0 m
34 95 ft / 29 m 4,491 ft / 1,369 m 352.06° 345.28° Asphalt 0 ft / 0 m 0 ft / 0 m

Map

Weather


0- 5 10 15 20 25 30 35+ Temperature / ° C

Clouds and Precipitation
Forecast for 2018-05-22 00:00 UTC. Updated 2 hours ago

Ground ~20,000 ft ~40,000 ft Winds

METAR

PAGM 212356Z AUTO 02014KT 10SM OVC012 01/M02 A2985 RMK AO2 SLP114 T00061022 10006 20000 53001 FZRANO

TAF

Not found

Frequencies

Recorded 125.90 MHz AWOS 3
Unicom 122.70 MHz CTAF
Warning: Do not use this data for real-world aviation or navigation. No guarantee of current accuracy is given.